createdAt,value
2018-07-16T00:02:23.501Z,55.61
2018-07-16T00:04:51.489Z,55.88
2018-07-16T00:07:19.524Z,55.78
2018-07-16T00:09:47.261Z,55.22
2018-07-16T00:12:15.153Z,55.41
2018-07-16T00:14:43.138Z,55.17
2018-07-16T00:17:11.476Z,55.21
2018-07-16T00:19:39.438Z,55.33
2018-07-16T00:22:07.118Z,55.38
2018-07-16T00:24:34.769Z,55.21
2018-07-16T00:27:02.656Z,56.02
2018-07-16T00:29:30.646Z,55.56
2018-07-16T00:31:58.740Z,55.62
2018-07-16T00:34:26.693Z,55.50
2018-07-16T00:36:54.348Z,56.23
2018-07-16T00:39:22.498Z,55.65
2018-07-16T00:41:50.161Z,55.37
2018-07-16T00:44:17.846Z,56.06
2018-07-16T00:46:45.483Z,56.18
2018-07-16T00:49:13.136Z,55.76
2018-07-16T00:51:40.832Z,56.11
2018-07-16T00:54:08.449Z,56.40
2018-07-16T00:56:36.228Z,56.09
2018-07-16T00:59:03.951Z,55.63
2018-07-16T01:01:31.657Z,55.71
2018-07-16T01:03:59.357Z,55.69
2018-07-16T01:06:27.359Z,55.35
2018-07-16T01:08:55.503Z,56.38
2018-07-16T01:11:23.173Z,56.24
2018-07-16T01:13:50.966Z,56.23
2018-07-16T01:16:18.617Z,55.59
2018-07-16T01:18:46.730Z,56.30
2018-07-16T01:21:14.414Z,55.97
2018-07-16T01:23:42.065Z,56.42
2018-07-16T01:26:11.610Z,55.81
2018-07-16T01:28:40.086Z,55.62
2018-07-16T01:31:08.624Z,56.38
2018-07-16T01:33:36.312Z,56.52
2018-07-16T01:36:04.050Z,56.34
2018-07-16T01:38:31.847Z,56.46
2018-07-16T01:40:59.597Z,55.73
2018-07-16T01:43:27.275Z,56.45
2018-07-16T01:45:54.913Z,56.40
2018-07-16T01:48:23.153Z,55.59
2018-07-16T01:50:51.159Z,55.89
2018-07-16T01:53:19.210Z,56.58
2018-07-16T01:55:46.919Z,56.17
2018-07-16T01:58:14.593Z,56.31
2018-07-16T02:00:57.335Z,56.40
2018-07-16T02:03:27.105Z,56.45
2018-07-16T02:05:55.402Z,55.76
2018-07-16T02:08:23.785Z,56.55
2018-07-16T02:10:52.042Z,56.11
2018-07-16T02:13:19.980Z,55.90
2018-07-16T02:15:48.275Z,55.93
2018-07-16T02:18:16.317Z,56.11
2018-07-16T02:20:44.769Z,56.65
2018-07-16T02:23:12.910Z,55.97
2018-07-16T02:25:40.943Z,56.79
2018-07-16T02:28:09.496Z,56.74
2018-07-16T02:30:37.853Z,56.74
2018-07-16T02:33:05.537Z,56.13
2018-07-16T02:35:33.197Z,56.22
2018-07-16T02:38:00.951Z,56.15
2018-07-16T02:40:29.225Z,56.19
2018-07-16T02:42:56.899Z,56.09
2018-07-16T02:45:24.818Z,56.93
2018-07-16T02:47:52.475Z,56.09
2018-07-16T02:50:20.385Z,56.91
2018-07-16T02:52:48.123Z,57.01
2018-07-16T02:55:15.758Z,56.05
2018-07-16T02:57:43.478Z,56.84
2018-07-16T03:00:11.470Z,56.19
2018-07-16T03:02:40.373Z,56.20
2018-07-16T03:05:12.529Z,56.93
2018-07-16T03:07:40.515Z,56.16
2018-07-16T03:10:08.717Z,56.78
2018-07-16T03:12:36.438Z,56.63
2018-07-16T03:15:04.642Z,56.77
2018-07-16T03:17:32.577Z,56.22
2018-07-16T03:20:00.231Z,56.35
2018-07-16T03:22:27.945Z,56.77
2018-07-16T03:24:55.621Z,56.75
2018-07-16T03:27:23.323Z,56.58
2018-07-16T03:29:51.324Z,56.30
2018-07-16T03:32:19.384Z,56.56
2018-07-16T03:34:47.169Z,56.45
2018-07-16T03:37:15.170Z,56.90
2018-07-16T03:39:42.878Z,56.30
2018-07-16T03:42:10.807Z,56.85
2018-07-16T03:44:39.046Z,56.11
2018-07-16T03:47:06.725Z,56.08
2018-07-16T03:49:34.760Z,56.71
2018-07-16T03:52:02.414Z,56.70
2018-07-16T03:54:30.284Z,56.67
2018-07-16T03:56:57.847Z,56.15
2018-07-16T03:59:25.603Z,56.43
2018-07-16T04:01:53.695Z,56.24
2018-07-16T04:04:21.360Z,56.03
2018-07-16T04:06:49.052Z,56.04
2018-07-16T04:09:16.968Z,56.59
2018-07-16T04:11:44.952Z,56.28
2018-07-16T04:14:12.605Z,56.51
2018-07-16T04:16:40.318Z,56.85
2018-07-16T04:19:08.268Z,56.20
2018-07-16T04:21:35.994Z,56.38
2018-07-16T04:24:03.852Z,56.84
2018-07-16T04:26:31.521Z,56.86
2018-07-16T04:28:59.554Z,56.72
2018-07-16T04:31:27.805Z,56.65
2018-07-16T04:33:55.498Z,56.02
2018-07-16T04:36:23.176Z,56.18
2018-07-16T04:38:50.894Z,56.79
2018-07-16T04:41:18.578Z,56.71
2018-07-16T04:43:46.862Z,56.65
2018-07-16T04:46:14.529Z,56.51
2018-07-16T04:48:42.161Z,55.89
2018-07-16T04:51:10.434Z,56.43
2018-07-16T04:53:38.461Z,56.62
2018-07-16T04:56:06.169Z,55.90
2018-07-16T04:58:33.854Z,55.85
2018-07-16T05:01:01.553Z,55.60
2018-07-16T05:03:29.335Z,56.06
2018-07-16T05:05:57.216Z,56.30
2018-07-16T05:08:24.892Z,55.90
2018-07-16T05:10:52.620Z,56.23
2018-07-16T05:13:20.262Z,56.22
2018-07-16T05:15:48.378Z,55.87
2018-07-16T05:18:16.444Z,55.49
2018-07-16T05:20:44.032Z,55.87
2018-07-16T05:23:12.386Z,56.02
2018-07-16T05:25:40.293Z,55.49
2018-07-16T05:28:08.046Z,55.22
2018-07-16T05:30:35.694Z,55.38
2018-07-16T05:33:03.717Z,55.97
2018-07-16T05:35:31.405Z,56.01
2018-07-16T05:37:59.360Z,55.84
2018-07-16T05:40:27.294Z,55.30
2018-07-16T05:42:55.259Z,55.85
2018-07-16T05:45:22.919Z,55.02
2018-07-16T05:47:50.574Z,55.69
2018-07-16T05:50:18.749Z,55.53
2018-07-16T05:52:46.441Z,54.88
2018-07-16T05:55:14.166Z,54.91
2018-07-16T05:57:42.069Z,55.54
2018-07-16T06:00:10.077Z,55.44
2018-07-16T06:02:37.837Z,55.26
2018-07-16T06:05:05.718Z,55.40
2018-07-16T06:07:33.638Z,54.90
2018-07-16T06:10:01.717Z,55.14
2018-07-16T06:12:29.394Z,54.72
2018-07-16T06:14:57.408Z,54.55
2018-07-16T06:17:25.625Z,55.24
2018-07-16T06:19:53.302Z,54.81
2018-07-16T06:22:20.995Z,55.04
2018-07-16T06:24:48.907Z,54.94
2018-07-16T06:27:16.549Z,54.29
2018-07-16T06:29:44.535Z,54.88
2018-07-16T06:32:12.514Z,54.31
2018-07-16T06:34:40.221Z,54.11
2018-07-16T06:37:08.314Z,54.86
2018-07-16T06:39:36.010Z,54.84
2018-07-16T06:42:03.733Z,54.30
2018-07-16T06:44:31.382Z,54.46
2018-07-16T06:46:59.406Z,54.20
2018-07-16T06:49:27.402Z,54.07
2018-07-16T06:51:55.102Z,53.84
2018-07-16T06:54:23.022Z,54.58
2018-07-16T06:56:50.712Z,54.28
2018-07-16T06:59:18.386Z,53.49
2018-07-16T07:01:46.398Z,54.32
2018-07-16T07:04:14.335Z,54.21
2018-07-16T07:06:42.025Z,53.24
2018-07-16T07:09:10.062Z,54.26
2018-07-16T07:11:37.906Z,53.34
2018-07-16T07:14:05.699Z,53.95
2018-07-16T07:16:33.923Z,53.99
2018-07-16T07:19:01.640Z,53.76
2018-07-16T07:21:29.315Z,53.91
2018-07-16T07:23:56.973Z,53.26
2018-07-16T07:26:25.037Z,53.54
2018-07-16T07:28:53.040Z,53.74
2018-07-16T07:31:20.708Z,52.59
2018-07-16T07:33:48.427Z,52.94
2018-07-16T07:36:16.324Z,53.71
2018-07-16T07:38:44.491Z,52.95
2018-07-16T07:41:12.441Z,53.54
2018-07-16T07:43:40.108Z,52.92
2018-07-16T07:46:08.061Z,53.52
2018-07-16T07:48:36.128Z,52.49
2018-07-16T07:51:04.214Z,53.49
2018-07-16T07:53:31.873Z,52.51
2018-07-16T07:55:59.593Z,52.54
2018-07-16T07:58:27.230Z,53.25
2018-07-16T08:00:54.916Z,53.39
2018-07-16T08:03:22.953Z,53.11
2018-07-16T08:05:56.224Z,52.50
2018-07-16T08:08:23.951Z,52.40
2018-07-16T08:10:51.881Z,53.14
2018-07-16T08:13:19.741Z,53.13
2018-07-16T08:15:47.524Z,52.54
2018-07-16T08:18:15.169Z,53.11
2018-07-16T08:20:42.809Z,52.49
2018-07-16T08:23:11.110Z,52.67
2018-07-16T08:25:38.802Z,52.99
2018-07-16T08:28:06.858Z,52.46
2018-07-16T08:30:34.574Z,52.66
2018-07-16T08:33:02.588Z,52.99
2018-07-16T08:35:30.323Z,52.10
2018-07-16T08:37:57.966Z,52.21
2018-07-16T08:40:25.870Z,51.94
2018-07-16T08:42:53.841Z,52.22
2018-07-16T08:45:21.820Z,52.67
2018-07-16T08:47:49.513Z,52.63
2018-07-16T08:50:18.767Z,52.58
2018-07-16T08:52:46.800Z,52.38
2018-07-16T08:55:14.434Z,52.62
2018-07-16T08:57:42.187Z,52.50
2018-07-16T09:00:09.945Z,52.36
2018-07-16T09:02:37.606Z,52.14
2018-07-16T09:05:05.359Z,52.04
2018-07-16T09:07:33.320Z,52.44
2018-07-16T09:10:01.274Z,51.50
2018-07-16T09:12:29.024Z,52.16
2018-07-16T09:14:56.926Z,51.73
2018-07-16T09:17:24.643Z,51.55
2018-07-16T09:19:52.691Z,52.08
2018-07-16T09:22:20.729Z,52.01
2018-07-16T09:24:48.352Z,51.45
2018-07-16T09:27:15.985Z,51.55
2018-07-16T09:29:43.601Z,51.10
2018-07-16T09:32:11.385Z,51.52
2018-07-16T09:34:39.279Z,51.31
2018-07-16T09:37:06.922Z,51.78
2018-07-16T09:39:34.606Z,51.27
2018-07-16T09:42:02.316Z,51.74
2018-07-16T09:44:30.111Z,51.86
2018-07-16T09:46:58.170Z,51.40
2018-07-16T09:49:25.902Z,51.06
2018-07-16T09:51:53.537Z,51.04
2018-07-16T09:54:21.189Z,50.99
2018-07-16T09:56:48.868Z,51.31
2018-07-16T09:59:16.779Z,51.73
2018-07-16T10:01:48.815Z,50.83
2018-07-16T10:04:16.534Z,50.69
2018-07-16T10:06:44.214Z,50.84
2018-07-16T10:09:12.210Z,51.73
2018-07-16T10:11:40.037Z,50.35
2018-07-16T10:14:07.969Z,50.88
2018-07-16T10:16:35.968Z,51.21
2018-07-16T10:19:03.631Z,50.82
2018-07-16T10:21:31.670Z,50.66
2018-07-16T10:23:59.550Z,50.63
2018-07-16T10:26:27.259Z,51.20
2018-07-16T10:28:54.881Z,51.12
2018-07-16T10:31:22.595Z,51.53
2018-07-16T10:33:50.618Z,50.58
2018-07-16T10:36:18.501Z,50.71
2018-07-16T10:38:46.197Z,50.68
2018-07-16T10:41:14.046Z,51.05
2018-07-16T10:43:41.720Z,50.61
2018-07-16T10:46:09.373Z,51.29
2018-07-16T10:48:37.071Z,50.08
2018-07-16T10:51:04.987Z,51.15
2018-07-16T10:53:32.624Z,51.09
2018-07-16T10:56:00.567Z,50.36
2018-07-16T10:58:28.198Z,51.35
2018-07-16T11:00:56.141Z,50.68
2018-07-16T11:03:24.220Z,50.35
2018-07-16T11:05:52.236Z,51.03
2018-07-16T11:08:19.959Z,50.75
2018-07-16T11:10:48.299Z,50.40
2018-07-16T11:13:15.977Z,50.57
2018-07-16T11:15:43.941Z,50.77
2018-07-16T11:18:11.605Z,50.18
2018-07-16T11:20:39.697Z,49.87
2018-07-16T11:23:07.690Z,50.13
2018-07-16T11:25:35.918Z,50.64
2018-07-16T11:28:03.622Z,50.89
2018-07-16T11:30:31.341Z,50.49
2018-07-16T11:32:59.040Z,49.65
2018-07-16T11:35:26.689Z,49.79
2018-07-16T11:37:54.348Z,50.03
2018-07-16T11:40:22.009Z,49.65
2018-07-16T11:42:49.668Z,50.28
2018-07-16T11:45:17.319Z,50.63
2018-07-16T11:47:45.361Z,49.69
2018-07-16T11:50:12.997Z,50.08
2018-07-16T11:52:40.988Z,49.56
2018-07-16T11:55:08.777Z,49.78
2018-07-16T11:57:36.726Z,50.62
2018-07-16T12:00:04.410Z,49.41
2018-07-16T12:02:32.074Z,49.69
2018-07-16T12:04:59.800Z,49.64
2018-07-16T12:07:27.686Z,49.34
2018-07-16T12:09:55.847Z,49.56
2018-07-16T12:12:23.945Z,49.41
2018-07-16T12:14:51.548Z,50.40
2018-07-16T12:17:19.278Z,50.19
2018-07-16T12:19:46.978Z,50.14
2018-07-16T12:22:14.703Z,50.01
2018-07-16T12:24:42.506Z,49.14
2018-07-16T12:27:10.137Z,49.66
2018-07-16T12:29:37.878Z,49.90
2018-07-16T12:32:06.137Z,49.28
2018-07-16T12:34:34.859Z,49.70
2018-07-16T12:37:02.549Z,49.60
2018-07-16T12:39:30.212Z,49.47
2018-07-16T12:41:58.112Z,49.76
2018-07-16T12:44:25.891Z,49.04
2018-07-16T12:46:54.217Z,48.94
2018-07-16T12:49:22.333Z,49.62
2018-07-16T12:51:50.260Z,49.80
2018-07-16T12:54:17.967Z,49.29
2018-07-16T12:56:45.956Z,49.12
2018-07-16T12:59:13.936Z,49.96
2018-07-16T13:01:41.597Z,49.01
2018-07-16T13:04:09.577Z,49.38
2018-07-16T13:06:37.496Z,49.24
2018-07-16T13:09:07.413Z,48.79
2018-07-16T13:11:35.522Z,49.86
2018-07-16T13:14:03.216Z,49.26
2018-07-16T13:16:30.908Z,48.87
2018-07-16T13:18:59.195Z,49.24
2018-07-16T13:21:26.828Z,49.42
2018-07-16T13:23:54.861Z,49.08
2018-07-16T13:26:22.514Z,48.50
2018-07-16T13:28:50.262Z,48.96
2018-07-16T13:31:18.228Z,49.22
2018-07-16T13:33:46.420Z,49.10
2018-07-16T13:36:14.129Z,48.38
2018-07-16T13:38:42.064Z,48.28
2018-07-16T13:41:09.754Z,48.84
2018-07-16T13:43:38.094Z,48.83
2018-07-16T13:46:06.215Z,48.67
2018-07-16T13:48:34.129Z,48.08
2018-07-16T13:51:01.742Z,48.35
2018-07-16T13:53:30.102Z,48.65
2018-07-16T13:55:57.738Z,48.87
2018-07-16T13:58:25.666Z,48.54
2018-07-16T14:00:53.318Z,49.04
2018-07-16T14:03:20.984Z,48.66
2018-07-16T14:05:48.738Z,49.01
2018-07-16T14:08:16.728Z,48.89
2018-07-16T14:10:44.621Z,47.80
2018-07-16T14:13:12.317Z,48.29
2018-07-16T14:15:39.987Z,48.81
2018-07-16T14:18:07.970Z,48.54
2018-07-16T14:20:35.609Z,48.42
2018-07-16T14:23:03.294Z,47.61
2018-07-16T14:25:31.281Z,48.56
2018-07-16T14:27:59.643Z,47.55
2018-07-16T14:30:27.673Z,47.95
2018-07-16T14:32:55.351Z,47.27
2018-07-16T14:35:23.093Z,46.46
2018-07-16T14:37:51.034Z,44.78
2018-07-16T14:40:18.802Z,42.49
2018-07-16T14:42:46.545Z,40.15
2018-07-16T14:45:14.204Z,38.45
2018-07-16T14:47:42.284Z,38.11
2018-07-16T14:50:09.968Z,37.60
2018-07-16T14:52:37.928Z,36.55
2018-07-16T14:55:05.878Z,35.50
2018-07-16T14:57:33.646Z,35.31
2018-07-16T15:00:01.323Z,35.73
2018-07-16T15:02:29.250Z,35.21
2018-07-16T15:04:56.919Z,35.17
2018-07-16T15:07:25.148Z,35.89
2018-07-16T15:09:53.083Z,37.91
2018-07-16T15:12:20.833Z,40.57
2018-07-16T15:14:48.905Z,41.22
2018-07-16T15:17:17.141Z,42.97
2018-07-16T15:19:45.177Z,44.04
2018-07-16T15:22:12.821Z,44.15
2018-07-16T15:24:40.513Z,45.10
2018-07-16T15:27:09.011Z,45.42
2018-07-16T15:29:37.018Z,45.56
2018-07-16T15:32:05.094Z,46.26
2018-07-16T15:34:33.058Z,45.95
2018-07-16T15:37:00.886Z,46.83
2018-07-16T15:39:28.621Z,46.69
2018-07-16T15:41:56.274Z,46.17
2018-07-16T15:44:24.290Z,46.59
2018-07-16T15:46:52.242Z,47.02
2018-07-16T15:49:20.157Z,46.94
2018-07-16T15:51:48.234Z,45.78
2018-07-16T15:54:15.977Z,45.95
2018-07-16T15:56:43.889Z,46.73
2018-07-16T15:59:11.703Z,46.52
2018-07-16T16:01:39.437Z,46.57
2018-07-16T16:04:07.067Z,46.21
2018-07-16T16:06:34.753Z,47.28
2018-07-16T16:09:02.636Z,46.83
2018-07-16T16:11:30.242Z,47.17
2018-07-16T16:13:58.196Z,47.76
2018-07-16T16:16:25.967Z,47.88
2018-07-16T16:18:53.600Z,47.31
2018-07-16T16:21:21.306Z,47.60
2018-07-16T16:23:49.240Z,46.15
2018-07-16T16:26:17.024Z,47.00
2018-07-16T16:28:44.638Z,46.68
2018-07-16T16:31:12.294Z,46.57
2018-07-16T16:33:39.946Z,45.92
2018-07-16T16:36:07.908Z,46.58
2018-07-16T16:38:35.585Z,47.05
2018-07-16T16:41:03.465Z,46.56
2018-07-16T16:43:31.146Z,48.12
2018-07-16T16:45:58.825Z,47.13
2018-07-16T16:48:26.456Z,47.64
2018-07-16T16:50:54.122Z,46.82
2018-07-16T16:53:22.053Z,47.06
2018-07-16T16:55:49.860Z,46.99
2018-07-16T16:58:17.764Z,46.97
2018-07-16T17:00:45.449Z,45.66
2018-07-16T17:03:13.529Z,45.63
2018-07-16T17:05:41.251Z,46.76
2018-07-16T17:08:09.227Z,47.04
2018-07-16T17:10:36.883Z,46.55
2018-07-16T17:13:04.575Z,46.22
2018-07-16T17:15:32.572Z,45.34
2018-07-16T17:18:00.383Z,45.82
2018-07-16T17:20:27.998Z,45.14
2018-07-16T17:22:56.208Z,44.63
2018-07-16T17:25:24.201Z,45.27
2018-07-16T17:27:51.892Z,46.08
2018-07-16T17:30:19.564Z,44.84
2018-07-16T17:32:47.268Z,44.79
2018-07-16T17:35:14.909Z,44.90
2018-07-16T17:37:42.572Z,43.95
2018-07-16T17:40:10.719Z,44.52
2018-07-16T17:42:38.628Z,44.20
2018-07-16T17:45:06.381Z,43.97
2018-07-16T17:47:34.268Z,44.10
2018-07-16T17:50:01.926Z,44.05
2018-07-16T17:52:29.940Z,43.92
2018-07-16T17:54:57.864Z,43.85
2018-07-16T17:57:25.541Z,43.94
2018-07-16T17:59:53.228Z,43.80
2018-07-16T18:02:21.170Z,43.82
2018-07-16T18:04:48.829Z,43.58
2018-07-16T18:07:20.348Z,43.83
2018-07-16T18:09:48.727Z,43.67
2018-07-16T18:12:17.150Z,44.73
2018-07-16T18:14:45.261Z,45.19
2018-07-16T18:17:13.588Z,45.72
2018-07-16T18:19:41.298Z,45.82
2018-07-16T18:22:09.245Z,45.88
2018-07-16T18:24:36.993Z,45.77
2018-07-16T18:27:04.669Z,46.88
2018-07-16T18:29:32.740Z,46.58
2018-07-16T18:32:00.388Z,45.86
2018-07-16T18:34:28.868Z,46.02
2018-07-16T18:36:57.121Z,45.73
2018-07-16T18:39:24.814Z,46.23
2018-07-16T18:41:52.886Z,46.10
2018-07-16T18:44:20.612Z,46.23
2018-07-16T18:46:48.606Z,45.67
2018-07-16T18:49:16.631Z,46.13
2018-07-16T18:51:44.287Z,45.96
2018-07-16T18:54:11.962Z,46.92
2018-07-16T18:56:39.607Z,46.24
2018-07-16T18:59:07.269Z,46.34
2018-07-16T19:01:35.279Z,46.38
2018-07-16T19:04:03.275Z,46.80
2018-07-16T19:06:31.472Z,46.74
2018-07-16T19:08:59.140Z,47.53
2018-07-16T19:11:26.776Z,47.15
2018-07-16T19:13:54.441Z,47.21
2018-07-16T19:16:22.101Z,47.88
2018-07-16T19:18:49.987Z,48.42
2018-07-16T19:21:17.940Z,48.32
2018-07-16T19:23:46.103Z,48.12
2018-07-16T19:26:13.746Z,48.89
2018-07-16T19:28:42.001Z,49.54
2018-07-16T19:31:09.651Z,49.01
2018-07-16T19:33:38.686Z,49.48
2018-07-16T19:36:06.717Z,49.79
2018-07-16T19:38:34.482Z,49.86
2018-07-16T19:41:02.107Z,50.42
2018-07-16T19:43:30.331Z,49.13
2018-07-16T19:45:57.981Z,49.84
2018-07-16T19:48:25.663Z,49.66
2018-07-16T19:50:53.474Z,50.21
2018-07-16T19:53:21.124Z,49.72
2018-07-16T19:55:48.847Z,49.89
2018-07-16T19:58:16.726Z,50.09
2018-07-16T20:00:44.959Z,49.73
2018-07-16T20:03:12.579Z,50.31
2018-07-16T20:05:40.610Z,50.30
2018-07-16T20:08:08.556Z,49.79
2018-07-16T20:10:36.294Z,50.89
2018-07-16T20:13:04.279Z,50.65
2018-07-16T20:15:32.226Z,50.49
2018-07-16T20:17:59.963Z,51.18
2018-07-16T20:20:33.216Z,51.31
2018-07-16T20:23:01.325Z,50.80
2018-07-16T20:25:28.943Z,50.49
2018-07-16T20:27:57.410Z,51.40
2018-07-16T20:30:25.448Z,50.68
2018-07-16T20:32:53.191Z,50.79
2018-07-16T20:35:20.898Z,51.11
2018-07-16T20:37:48.537Z,51.42
2018-07-16T20:40:16.313Z,50.69
2018-07-16T20:42:44.050Z,51.09
2018-07-16T20:45:11.950Z,51.74
2018-07-16T20:47:39.564Z,51.92
2018-07-16T20:50:07.838Z,52.32
2018-07-16T20:52:35.860Z,51.12
2018-07-16T20:55:03.814Z,51.66
2018-07-16T20:57:31.490Z,51.77
2018-07-16T20:59:59.417Z,51.82
2018-07-16T21:02:27.417Z,51.79
2018-07-16T21:04:55.030Z,52.21
2018-07-16T21:07:22.687Z,52.26
2018-07-16T21:09:50.406Z,52.28
2018-07-16T21:12:18.271Z,52.23
2018-07-16T21:14:45.927Z,51.15
2018-07-16T21:17:13.658Z,51.56
2018-07-16T21:19:41.357Z,52.11
2018-07-16T21:22:09.084Z,52.57
2018-07-16T21:24:36.729Z,51.58
2018-07-16T21:27:04.371Z,52.14
2018-07-16T21:29:32.386Z,51.81
2018-07-16T21:32:00.613Z,51.40
2018-07-16T21:34:28.307Z,52.31
2018-07-16T21:36:56.396Z,52.30
2018-07-16T21:39:24.036Z,52.33
2018-07-16T21:41:51.766Z,51.75
2018-07-16T21:44:19.813Z,52.50
2018-07-16T21:46:47.756Z,51.64
2018-07-16T21:49:15.483Z,51.78
2018-07-16T21:51:43.142Z,51.89
2018-07-16T21:54:11.112Z,52.27
2018-07-16T21:56:39.013Z,52.23
2018-07-16T21:59:06.664Z,52.27
2018-07-16T22:01:34.809Z,51.44
2018-07-16T22:04:02.479Z,51.87
2018-07-16T22:06:30.109Z,52.18
2018-07-16T22:08:57.794Z,52.40
2018-07-16T22:11:25.705Z,52.27
2018-07-16T22:13:53.970Z,51.81
2018-07-16T22:16:21.862Z,52.45
2018-07-16T22:18:49.551Z,52.23
2018-07-16T22:21:17.209Z,51.71
2018-07-16T22:23:45.099Z,51.83
2018-07-16T22:26:12.785Z,52.27
2018-07-16T22:28:40.451Z,52.37
2018-07-16T22:31:08.112Z,52.54
2018-07-16T22:33:35.777Z,52.79
2018-07-16T22:36:04.003Z,51.82
2018-07-16T22:38:31.944Z,52.61
2018-07-16T22:40:59.625Z,51.89
2018-07-16T22:43:27.899Z,51.72
2018-07-16T22:45:55.548Z,51.98
2018-07-16T22:48:23.234Z,52.25
2018-07-16T22:50:50.886Z,52.60
2018-07-16T22:53:18.538Z,52.77
2018-07-16T22:55:46.194Z,51.99
2018-07-16T22:58:13.869Z,51.77
2018-07-16T23:00:42.091Z,52.50
2018-07-16T23:03:09.962Z,52.66
2018-07-16T23:05:37.907Z,52.60
2018-07-16T23:08:05.803Z,52.11
2018-07-16T23:10:33.792Z,52.67
2018-07-16T23:13:01.433Z,52.14
2018-07-16T23:15:29.601Z,52.33
2018-07-16T23:17:57.330Z,51.89
2018-07-16T23:20:24.997Z,52.53
2018-07-16T23:22:53.954Z,51.73
2018-07-16T23:25:21.995Z,51.83
2018-07-16T23:27:50.252Z,52.80
2018-07-16T23:30:17.895Z,51.90
2018-07-16T23:32:46.037Z,52.69
2018-07-16T23:35:14.501Z,52.49
2018-07-16T23:37:42.143Z,52.46
2018-07-16T23:40:09.862Z,52.08
2018-07-16T23:42:37.489Z,52.17
2018-07-16T23:45:05.449Z,52.20
2018-07-16T23:47:33.057Z,52.45
2018-07-16T23:50:01.358Z,52.38
2018-07-16T23:52:29.676Z,51.83
2018-07-16T23:54:57.349Z,51.67
2018-07-16T23:57:25.023Z,51.97
2018-07-16T23:59:52.932Z,52.82
